createdAt,value
2019-05-11T00:00:23.574Z,0.00
2019-05-11T00:01:23.531Z,0.00
2019-05-11T00:02:23.413Z,0.00
2019-05-11T00:03:23.452Z,0.00
2019-05-11T00:04:23.266Z,0.00
2019-05-11T00:05:23.254Z,0.00
2019-05-11T00:06:23.103Z,0.00
2019-05-11T00:07:23.072Z,0.00
2019-05-11T00:08:22.954Z,0.00
2019-05-11T00:09:22.973Z,0.00
2019-05-11T00:10:23.657Z,0.00
2019-05-11T00:11:22.718Z,0.00
2019-05-11T00:12:22.628Z,0.00
2019-05-11T00:13:22.593Z,0.00
2019-05-11T00:14:22.480Z,0.00
2019-05-11T00:15:22.520Z,0.00
2019-05-11T00:16:22.313Z,0.00
2019-05-11T00:17:22.311Z,0.00
2019-05-11T00:18:22.160Z,0.00
2019-05-11T00:19:22.131Z,0.00
2019-05-11T00:20:21.997Z,0.00
2019-05-11T00:21:22.035Z,0.00
2019-05-11T00:22:21.845Z,0.00
2019-05-11T00:23:21.842Z,0.00
2019-05-11T00:24:21.690Z,0.00
2019-05-11T00:25:21.657Z,0.00
2019-05-11T00:26:21.529Z,0.00
2019-05-11T00:27:21.562Z,0.00
2019-05-11T00:28:21.369Z,0.00
2019-05-11T00:29:21.299Z,0.00
2019-05-11T00:30:21.216Z,0.00
2019-05-11T00:31:21.183Z,0.00
2019-05-11T00:32:22.893Z,0.00
2019-05-11T00:33:21.099Z,0.00
2019-05-11T00:34:20.899Z,0.00
2019-05-11T00:35:20.899Z,0.00
2019-05-11T00:36:20.741Z,0.00
2019-05-11T00:37:20.675Z,0.00
2019-05-11T00:38:20.605Z,0.00
2019-05-11T00:39:20.618Z,0.00
2019-05-11T00:40:20.428Z,0.00
2019-05-11T00:41:20.428Z,0.00
2019-05-11T00:42:20.273Z,0.00
2019-05-11T00:43:20.238Z,0.00
2019-05-11T00:44:20.123Z,0.00
2019-05-11T00:45:20.162Z,0.00
2019-05-11T00:46:19.955Z,0.00
2019-05-11T00:47:19.956Z,0.00
2019-05-11T00:48:19.801Z,0.00
2019-05-11T00:49:19.768Z,0.00
2019-05-11T00:50:19.653Z,0.00
2019-05-11T00:51:19.681Z,0.00
2019-05-11T00:52:19.482Z,0.00
2019-05-11T00:53:19.488Z,0.00
2019-05-11T00:54:19.327Z,0.00
2019-05-11T00:55:19.298Z,0.00
2019-05-11T00:56:19.196Z,0.00
2019-05-11T00:57:19.219Z,0.00
2019-05-11T00:58:19.018Z,0.00
2019-05-11T00:59:21.878Z,0.00
2019-05-11T01:00:18.867Z,0.00
2019-05-11T01:01:18.826Z,0.00
2019-05-11T01:02:18.704Z,0.00
2019-05-11T01:03:18.742Z,0.00
2019-05-11T01:04:18.623Z,0.00
2019-05-11T01:05:18.550Z,0.00
2019-05-11T01:06:18.389Z,0.00
2019-05-11T01:07:18.356Z,0.00
2019-05-11T01:08:18.240Z,0.00
2019-05-11T01:09:18.271Z,0.00
2019-05-11T01:10:25.449Z,0.00
2019-05-11T01:11:17.998Z,0.00
2019-05-11T01:12:17.932Z,0.00
2019-05-11T01:13:17.835Z,0.00
2019-05-11T01:14:17.771Z,0.00
2019-05-11T01:15:17.679Z,0.00
2019-05-11T01:16:17.609Z,0.00
2019-05-11T01:17:17.521Z,0.00
2019-05-11T01:18:17.574Z,0.00
2019-05-11T01:19:17.365Z,0.00
2019-05-11T01:20:18.710Z,0.00
2019-05-11T01:21:17.223Z,0.00
2019-05-11T01:22:17.233Z,0.00
2019-05-11T01:23:17.070Z,0.00
2019-05-11T01:24:17.049Z,0.00
2019-05-11T01:25:16.890Z,0.00
2019-05-11T01:26:16.850Z,0.00
2019-05-11T01:27:16.736Z,0.00
2019-05-11T01:28:16.767Z,0.00
2019-05-11T01:29:16.579Z,0.00
2019-05-11T01:30:16.680Z,0.00
2019-05-11T01:31:16.423Z,0.00
2019-05-11T01:32:16.385Z,0.00
2019-05-11T01:33:16.265Z,0.00
2019-05-11T01:34:16.303Z,0.00
2019-05-11T01:35:16.110Z,0.00
2019-05-11T01:36:16.106Z,0.00
2019-05-11T01:37:15.953Z,0.00
2019-05-11T01:38:15.907Z,0.00
2019-05-11T01:39:15.805Z,0.00
2019-05-11T01:40:15.820Z,0.00
2019-05-11T01:41:15.636Z,0.00
2019-05-11T01:42:15.576Z,0.00
2019-05-11T01:43:15.485Z,0.00
2019-05-11T01:44:15.440Z,0.00
2019-05-11T01:45:15.321Z,0.00
2019-05-11T01:46:15.350Z,0.00
2019-05-11T01:47:15.163Z,0.00
2019-05-11T01:48:15.162Z,0.00
2019-05-11T01:49:15.015Z,0.00
2019-05-11T01:50:14.979Z,0.00
2019-05-11T01:51:14.849Z,0.00
2019-05-11T01:52:14.879Z,0.00
2019-05-11T01:53:14.703Z,0.00
2019-05-11T01:54:14.646Z,0.00
2019-05-11T01:55:14.527Z,0.00
2019-05-11T01:56:14.492Z,0.00
2019-05-11T01:57:14.382Z,0.00
2019-05-11T01:58:14.407Z,0.00
2019-05-11T01:59:14.217Z,0.00
2019-05-11T02:00:14.214Z,0.00
2019-05-11T02:01:14.073Z,0.00
2019-05-11T02:02:14.028Z,0.00
2019-05-11T02:03:13.894Z,0.00
2019-05-11T02:04:13.937Z,0.00
2019-05-11T02:05:13.742Z,0.00
2019-05-11T02:06:13.749Z,0.00
2019-05-11T02:07:13.588Z,0.00
2019-05-11T02:08:13.558Z,0.00
2019-05-11T02:09:13.425Z,0.00
2019-05-11T02:10:13.363Z,0.00
2019-05-11T02:11:15.901Z,0.00
2019-05-11T02:12:13.271Z,0.00
2019-05-11T02:13:13.112Z,0.00
2019-05-11T02:14:13.038Z,0.00
2019-05-11T02:15:12.952Z,0.00
2019-05-11T02:16:12.996Z,0.00
2019-05-11T02:17:12.799Z,0.00
2019-05-11T02:18:12.808Z,0.00
2019-05-11T02:19:12.640Z,0.00
2019-05-11T02:20:12.623Z,0.00
2019-05-11T02:21:12.478Z,0.00
2019-05-11T02:22:12.528Z,0.00
2019-05-11T02:23:12.328Z,0.00
2019-05-11T02:24:12.342Z,0.00
2019-05-11T02:25:12.170Z,0.00
2019-05-11T02:26:12.145Z,0.00
2019-05-11T02:27:12.012Z,0.00
2019-05-11T02:28:12.051Z,0.00
2019-05-11T02:29:11.885Z,0.00
2019-05-11T02:30:11.871Z,0.00
2019-05-11T02:31:12.272Z,0.00
2019-05-11T02:32:11.670Z,0.00
2019-05-11T02:33:11.555Z,0.00
2019-05-11T02:34:11.588Z,0.00
2019-05-11T02:35:11.390Z,0.00
2019-05-11T02:36:11.395Z,0.00
2019-05-11T02:37:11.230Z,0.00
2019-05-11T02:38:11.196Z,0.00
2019-05-11T02:39:11.068Z,0.00
2019-05-11T02:40:11.113Z,0.00
2019-05-11T02:41:10.917Z,0.00
2019-05-11T02:42:10.930Z,0.00
2019-05-11T02:43:10.758Z,0.00
2019-05-11T02:44:10.681Z,0.00
2019-05-11T02:45:10.597Z,0.00
2019-05-11T02:46:10.642Z,0.00
2019-05-11T02:47:10.441Z,0.00
2019-05-11T02:48:10.456Z,0.00
2019-05-11T02:49:10.285Z,0.00
2019-05-11T02:50:10.222Z,0.00
2019-05-11T02:51:10.131Z,0.00
2019-05-11T02:52:10.175Z,0.00
2019-05-11T02:53:09.975Z,0.00
2019-05-11T02:54:09.981Z,0.00
2019-05-11T02:55:09.812Z,0.00
2019-05-11T02:56:09.790Z,0.00
2019-05-11T02:57:09.655Z,0.00
2019-05-11T02:58:09.595Z,0.00
2019-05-11T02:59:09.498Z,0.00
2019-05-11T03:00:09.515Z,0.00
2019-05-11T03:01:09.346Z,0.00
2019-05-11T03:02:09.316Z,0.00
2019-05-11T03:03:09.185Z,0.00
2019-05-11T03:04:09.235Z,0.00
2019-05-11T03:05:09.027Z,0.00
2019-05-11T03:06:09.036Z,0.00
2019-05-11T03:07:08.870Z,0.00
2019-05-11T03:08:08.855Z,0.00
2019-05-11T03:09:08.724Z,0.00
2019-05-11T03:10:08.656Z,0.00
2019-05-11T03:11:08.561Z,0.00
2019-05-11T03:12:08.567Z,0.00
2019-05-11T03:13:08.400Z,0.00
2019-05-11T03:14:08.372Z,0.00
2019-05-11T03:15:08.281Z,0.00
2019-05-11T03:16:08.180Z,0.00
2019-05-11T03:17:08.084Z,0.00
2019-05-11T03:18:08.099Z,0.00
2019-05-11T03:19:07.958Z,0.00
2019-05-11T03:20:07.909Z,0.00
2019-05-11T03:21:07.779Z,0.00
2019-05-11T03:22:07.720Z,0.00
2019-05-11T03:23:07.616Z,0.00
2019-05-11T03:24:07.628Z,0.00
2019-05-11T03:25:07.457Z,0.00
2019-05-11T03:26:07.392Z,0.00
2019-05-11T03:27:07.301Z,0.00
2019-05-11T03:28:08.270Z,0.00
2019-05-11T03:29:07.139Z,0.00
2019-05-11T03:30:07.157Z,0.00
2019-05-11T03:31:06.985Z,0.00
2019-05-11T03:32:06.966Z,0.00
2019-05-11T03:33:06.824Z,0.00
2019-05-11T03:34:06.779Z,0.00
2019-05-11T03:35:06.673Z,0.00
2019-05-11T03:36:06.596Z,0.00
2019-05-11T03:37:06.509Z,0.00
2019-05-11T03:38:06.495Z,0.00
2019-05-11T03:39:06.354Z,0.00
2019-05-11T03:40:06.314Z,0.00
2019-05-11T03:41:06.194Z,0.00
2019-05-11T03:42:14.584Z,0.00
2019-05-11T03:43:06.041Z,0.00
2019-05-11T03:44:06.129Z,0.00
2019-05-11T03:45:05.889Z,0.00
2019-05-11T03:46:05.833Z,0.00
2019-05-11T03:47:05.724Z,0.00
2019-05-11T03:48:05.654Z,0.00
2019-05-11T03:49:05.565Z,0.00
2019-05-11T03:50:05.555Z,0.00
2019-05-11T03:51:05.413Z,0.00
2019-05-11T03:52:05.340Z,0.00
2019-05-11T03:53:05.261Z,0.00
2019-05-11T03:54:05.183Z,0.00
2019-05-11T03:55:05.095Z,0.00
2019-05-11T03:56:05.085Z,0.00
2019-05-11T03:57:04.941Z,0.00
2019-05-11T03:58:04.894Z,0.00
2019-05-11T03:59:04.780Z,0.00
2019-05-11T04:00:04.810Z,0.00
2019-05-11T04:01:04.623Z,0.00
2019-05-11T04:02:04.617Z,0.00
2019-05-11T04:03:04.477Z,0.00
2019-05-11T04:04:04.438Z,0.00
2019-05-11T04:05:04.322Z,0.00
2019-05-11T04:06:04.338Z,0.00
2019-05-11T04:07:04.152Z,0.00
2019-05-11T04:08:04.082Z,0.00
2019-05-11T04:09:03.997Z,0.00
2019-05-11T04:10:03.953Z,0.00
2019-05-11T04:11:03.859Z,0.00
2019-05-11T04:12:03.867Z,0.00
2019-05-11T04:13:03.678Z,0.00
2019-05-11T04:14:03.674Z,0.00
2019-05-11T04:15:03.530Z,0.00
2019-05-11T04:16:03.488Z,0.00
2019-05-11T04:17:03.372Z,0.00
2019-05-11T04:18:03.396Z,0.00
2019-05-11T04:19:03.221Z,0.00
2019-05-11T04:20:03.209Z,0.00
2019-05-11T04:21:03.050Z,0.00
2019-05-11T04:22:03.019Z,0.00
2019-05-11T04:23:02.898Z,0.00
2019-05-11T04:24:02.925Z,0.00
2019-05-11T04:25:02.736Z,0.00
2019-05-11T04:26:02.731Z,0.00
2019-05-11T04:27:02.579Z,0.00
2019-05-11T04:28:02.555Z,0.00
2019-05-11T04:29:02.426Z,0.00
2019-05-11T04:30:02.457Z,0.00
2019-05-11T04:31:02.266Z,0.00
2019-05-11T04:32:02.205Z,0.00
2019-05-11T04:33:02.111Z,0.00
2019-05-11T04:34:02.075Z,0.00
2019-05-11T04:35:01.950Z,0.00
2019-05-11T04:36:01.978Z,0.00
2019-05-11T04:37:01.798Z,0.00
2019-05-11T04:38:01.790Z,0.00
2019-05-11T04:39:01.641Z,0.00
2019-05-11T04:40:01.599Z,0.00
2019-05-11T04:41:01.480Z,0.00
2019-05-11T04:42:01.515Z,5.63
2019-05-11T04:43:01.319Z,5.63
2019-05-11T04:44:01.317Z,5.63
2019-05-11T04:45:01.162Z,5.63
2019-05-11T04:46:01.227Z,5.63
2019-05-11T04:47:01.007Z,5.63
2019-05-11T04:48:01.040Z,5.63
2019-05-11T04:49:00.863Z,5.63
2019-05-11T04:50:00.848Z,5.63
2019-05-11T04:51:00.697Z,5.63
2019-05-11T04:52:00.762Z,5.63
2019-05-11T04:53:00.531Z,5.63
2019-05-11T04:54:00.573Z,5.63
2019-05-11T04:55:00.391Z,5.63
2019-05-11T04:56:00.382Z,5.63
2019-05-11T04:57:00.799Z,5.63
2019-05-11T04:58:00.298Z,11.25
2019-05-11T04:59:00.068Z,11.25
2019-05-11T05:00:00.098Z,11.25
2019-05-11T05:00:59.902Z,11.25
2019-05-11T05:01:59.914Z,11.25
2019-05-11T05:02:59.747Z,11.25
2019-05-11T05:04:13.423Z,16.88
2019-05-11T05:04:59.596Z,16.88
2019-05-11T05:06:21.189Z,16.88
2019-05-11T05:07:00.286Z,16.88
2019-05-11T05:08:09.094Z,22.50
2019-05-11T05:09:03.697Z,22.50
2019-05-11T05:09:59.364Z,16.88
2019-05-11T05:11:00.789Z,16.88
2019-05-11T05:11:59.159Z,16.88
2019-05-11T05:13:10.132Z,11.25
2019-05-11T05:14:01.869Z,11.25
2019-05-11T05:14:58.802Z,11.25
2019-05-11T05:15:58.878Z,11.25
2019-05-11T05:16:58.644Z,11.25
2019-05-11T05:17:58.686Z,5.63
2019-05-11T05:18:58.491Z,5.63
2019-05-11T05:19:58.492Z,5.63
2019-05-11T05:20:58.336Z,5.63
2019-05-11T05:21:58.409Z,5.63
2019-05-11T05:22:58.173Z,5.63
2019-05-11T05:23:58.216Z,5.63
2019-05-11T05:24:58.019Z,5.63
2019-05-11T05:25:58.026Z,5.63
2019-05-11T05:26:57.864Z,11.25
2019-05-11T05:27:57.937Z,11.25
2019-05-11T05:28:57.701Z,11.25
2019-05-11T05:29:57.748Z,16.88
2019-05-11T05:30:57.544Z,16.88
2019-05-11T05:31:57.556Z,16.88
2019-05-11T05:32:57.392Z,16.88
2019-05-11T05:34:00.866Z,16.88
2019-05-11T05:34:57.232Z,16.88
2019-05-11T05:35:57.278Z,16.88
2019-05-11T05:36:57.069Z,16.88
2019-05-11T05:37:57.034Z,16.88
2019-05-11T05:38:56.917Z,16.88
2019-05-11T05:39:57.009Z,22.50
2019-05-11T05:40:56.756Z,22.50
2019-05-11T05:41:57.677Z,22.50
2019-05-11T05:42:56.603Z,22.50
2019-05-11T05:43:56.622Z,22.50
2019-05-11T05:44:56.443Z,22.50
2019-05-11T05:45:56.537Z,22.50
2019-05-11T05:46:56.289Z,22.50
2019-05-11T05:47:56.349Z,22.50
2019-05-11T05:48:56.125Z,22.50
2019-05-11T05:49:56.150Z,22.50
2019-05-11T05:50:55.976Z,22.50
2019-05-11T05:51:58.419Z,22.50
2019-05-11T05:52:55.820Z,22.50
2019-05-11T05:53:55.871Z,22.50
2019-05-11T05:54:55.660Z,22.50
2019-05-11T05:55:55.678Z,22.50
2019-05-11T05:56:55.501Z,28.13
2019-05-11T05:57:55.594Z,28.13
2019-05-11T05:58:55.342Z,28.13
2019-05-11T05:59:55.337Z,28.13
2019-05-11T06:00:55.187Z,28.13
2019-05-11T06:01:55.207Z,33.75
2019-05-11T06:02:55.029Z,39.38
2019-05-11T06:03:55.121Z,39.38
2019-05-11T06:04:54.877Z,39.38
2019-05-11T06:05:54.930Z,45.00
2019-05-11T06:06:54.716Z,45.00
2019-05-11T06:07:54.676Z,45.00
2019-05-11T06:08:54.566Z,45.00
2019-05-11T06:09:54.584Z,50.63
2019-05-11T06:10:54.402Z,45.00
2019-05-11T06:11:54.396Z,45.00
2019-05-11T06:12:54.272Z,45.00
2019-05-11T06:13:54.267Z,45.00
2019-05-11T06:14:54.093Z,45.00
2019-05-11T06:15:54.186Z,45.00
2019-05-11T06:16:53.944Z,45.00
2019-05-11T06:17:53.987Z,45.00
2019-05-11T06:18:53.775Z,45.00
2019-05-11T06:19:53.797Z,45.00
2019-05-11T06:20:53.622Z,45.00
2019-05-11T06:21:53.715Z,45.00
2019-05-11T06:22:53.469Z,45.00
2019-05-11T06:23:53.548Z,45.00
2019-05-11T06:24:53.310Z,45.00
2019-05-11T06:25:53.329Z,45.00
2019-05-11T06:26:53.153Z,39.38
2019-05-11T06:27:53.173Z,39.38
2019-05-11T06:28:52.992Z,39.38
2019-05-11T06:29:53.049Z,39.38
2019-05-11T06:30:52.842Z,45.00
2019-05-11T06:31:52.766Z,45.00
2019-05-11T06:32:52.864Z,45.00
2019-05-11T06:33:52.606Z,45.00
2019-05-11T06:34:52.676Z,50.63
2019-05-11T06:35:52.448Z,50.63
2019-05-11T06:36:52.492Z,50.63
2019-05-11T06:37:52.294Z,50.63
2019-05-11T06:38:52.396Z,50.63
2019-05-11T06:39:52.135Z,50.63
2019-05-11T06:40:52.131Z,39.38
2019-05-11T06:41:51.982Z,28.13
2019-05-11T06:42:52.014Z,28.13
2019-05-11T06:44:01.503Z,28.13
2019-05-11T06:44:51.925Z,28.13
2019-05-11T06:45:51.669Z,28.13
2019-05-11T06:46:51.733Z,28.13
2019-05-11T06:47:51.517Z,28.13
2019-05-11T06:48:51.551Z,28.13
2019-05-11T06:49:51.362Z,33.75
2019-05-11T06:50:51.453Z,33.75
2019-05-11T06:51:51.214Z,33.75
2019-05-11T06:52:51.264Z,39.38
2019-05-11T06:53:51.054Z,45.00
2019-05-11T06:54:51.078Z,45.00
2019-05-11T06:55:50.898Z,45.00
2019-05-11T06:56:50.984Z,45.00
2019-05-11T06:57:50.735Z,45.00
2019-05-11T06:58:50.795Z,45.00
2019-05-11T06:59:50.582Z,39.38
2019-05-11T07:00:50.600Z,45.00
2019-05-11T07:01:50.422Z,45.00
2019-05-11T07:02:50.516Z,39.38
2019-05-11T07:03:50.271Z,39.38
2019-05-11T07:04:50.246Z,50.63
2019-05-11T07:05:50.118Z,56.25
2019-05-11T07:06:50.246Z,56.25
2019-05-11T07:07:49.964Z,50.63
2019-05-11T07:08:50.038Z,50.63
2019-05-11T07:09:49.802Z,50.63
2019-05-11T07:10:49.860Z,50.63
2019-05-11T07:11:49.691Z,61.88
2019-05-11T07:12:49.714Z,67.50
2019-05-11T07:13:49.494Z,67.50
2019-05-11T07:14:49.575Z,67.50
2019-05-11T07:15:49.338Z,56.25
2019-05-11T07:16:49.379Z,45.00
2019-05-11T07:17:49.192Z,39.38
2019-05-11T07:18:49.290Z,33.75
2019-05-11T07:19:49.030Z,33.75
2019-05-11T07:20:50.792Z,33.75
2019-05-11T07:21:48.898Z,33.75
2019-05-11T07:22:48.832Z,39.38
2019-05-11T07:23:48.720Z,39.38
2019-05-11T07:24:48.821Z,39.38
2019-05-11T07:25:48.566Z,39.38
2019-05-11T07:26:48.639Z,39.38
2019-05-11T07:27:48.410Z,39.38
2019-05-11T07:28:48.445Z,45.00
2019-05-11T07:29:48.257Z,45.00
2019-05-11T07:30:49.034Z,45.00
2019-05-11T07:31:48.104Z,45.00
2019-05-11T07:32:48.304Z,39.38
2019-05-11T07:33:48.650Z,39.38
2019-05-11T07:34:48.740Z,33.75
2019-05-11T07:35:47.964Z,28.13
2019-05-11T07:36:47.879Z,28.13
2019-05-11T07:37:47.959Z,28.13
2019-05-11T07:38:48.770Z,28.13
2019-05-11T07:39:48.711Z,28.13
2019-05-11T07:40:47.751Z,28.13
2019-05-11T07:41:47.801Z,28.13
2019-05-11T07:42:48.533Z,28.13
2019-05-11T07:43:48.506Z,28.13
2019-05-11T07:44:48.138Z,28.13
2019-05-11T07:45:47.963Z,28.13
2019-05-11T07:46:48.276Z,33.75
2019-05-11T07:47:48.617Z,39.38
2019-05-11T07:48:47.991Z,39.38
2019-05-11T07:49:48.781Z,39.38
2019-05-11T07:50:47.939Z,39.38
2019-05-11T07:51:48.134Z,39.38
2019-05-11T07:52:48.274Z,39.38
2019-05-11T07:53:48.555Z,45.00
2019-05-11T07:54:52.382Z,45.00
2019-05-11T07:55:48.438Z,39.38
2019-05-11T07:56:47.920Z,39.38
2019-05-11T07:57:48.104Z,33.75
2019-05-11T07:58:48.086Z,28.13
2019-05-11T07:59:45.945Z,28.13
2019-05-11T08:00:46.005Z,28.13
2019-05-11T08:01:47.955Z,28.13
2019-05-11T08:02:48.018Z,28.13
2019-05-11T08:03:48.069Z,33.75
2019-05-11T08:04:48.014Z,33.75
2019-05-11T08:05:47.684Z,33.75
2019-05-11T08:06:47.767Z,33.75
2019-05-11T08:07:45.339Z,28.13
2019-05-11T08:08:45.443Z,28.13
2019-05-11T08:09:45.178Z,28.13
2019-05-11T08:10:45.157Z,28.13
2019-05-11T08:11:45.019Z,33.75
2019-05-11T08:12:45.061Z,33.75
2019-05-11T08:13:44.871Z,39.38
2019-05-11T08:14:57.755Z,45.00
2019-05-11T08:15:44.714Z,45.00
2019-05-11T08:16:44.784Z,39.38
2019-05-11T08:17:44.561Z,39.38
2019-05-11T08:18:44.700Z,33.75
2019-05-11T08:19:44.412Z,33.75
2019-05-11T08:20:44.512Z,33.75
2019-05-11T08:21:44.258Z,39.38
2019-05-11T08:22:44.311Z,45.00
2019-05-11T08:23:44.101Z,56.25
2019-05-11T08:24:44.223Z,67.50
2019-05-11T08:25:43.942Z,90.00
2019-05-11T08:26:48.005Z,118.13
2019-05-11T08:27:43.796Z,118.13
2019-05-11T08:28:44.866Z,151.88
2019-05-11T08:29:43.634Z,106.88
2019-05-11T08:30:43.752Z,95.63
2019-05-11T08:31:43.487Z,101.25
2019-05-11T08:32:43.557Z,101.25
2019-05-11T08:33:43.338Z,101.25
2019-05-11T08:34:43.474Z,123.75
2019-05-11T08:35:43.184Z,106.88
2019-05-11T08:36:43.279Z,157.50
2019-05-11T08:37:43.029Z,101.25
2019-05-11T08:38:43.083Z,129.38
2019-05-11T08:39:42.864Z,95.63
2019-05-11T08:40:42.998Z,90.00
2019-05-11T08:41:42.714Z,84.38
2019-05-11T08:42:42.811Z,84.38
2019-05-11T08:43:42.569Z,84.38
2019-05-11T08:44:42.625Z,90.00
2019-05-11T08:45:42.418Z,90.00
2019-05-11T08:46:42.530Z,95.63
2019-05-11T08:47:42.264Z,95.63
2019-05-11T08:48:42.342Z,90.00
2019-05-11T08:49:42.105Z,90.00
2019-05-11T08:50:42.147Z,90.00
2019-05-11T08:51:41.960Z,90.00
2019-05-11T08:52:42.072Z,90.00
2019-05-11T08:53:41.803Z,84.38
2019-05-11T08:54:41.867Z,90.00
2019-05-11T08:55:41.642Z,90.00
2019-05-11T08:56:41.780Z,230.63
2019-05-11T08:57:41.491Z,185.63
2019-05-11T08:58:41.422Z,213.75
2019-05-11T08:59:41.492Z,253.13
2019-05-11T09:00:41.261Z,168.75
2019-05-11T09:01:41.402Z,281.25
2019-05-11T09:02:41.114Z,286.88
2019-05-11T09:03:41.211Z,281.25
2019-05-11T09:04:42.086Z,196.88
2019-05-11T09:05:41.022Z,230.63
2019-05-11T09:06:40.817Z,275.63
2019-05-11T09:07:40.933Z,275.63
2019-05-11T09:08:40.654Z,253.13
2019-05-11T09:09:40.638Z,185.63
2019-05-11T09:10:40.507Z,241.88
2019-05-11T09:11:40.549Z,219.38
2019-05-11T09:12:40.356Z,253.13
2019-05-11T09:13:40.364Z,101.25
2019-05-11T09:14:40.205Z,185.63
2019-05-11T09:15:40.886Z,208.13
2019-05-11T09:16:40.055Z,241.88
2019-05-11T09:17:40.079Z,253.13
2019-05-11T09:18:39.901Z,213.75
2019-05-11T09:19:39.893Z,95.63
2019-05-11T09:20:39.750Z,118.13
2019-05-11T09:21:39.801Z,135.00
2019-05-11T09:22:39.606Z,101.25
2019-05-11T09:23:40.837Z,95.63
2019-05-11T09:24:39.459Z,185.63
2019-05-11T09:25:39.418Z,286.88
2019-05-11T09:26:39.302Z,225.00
2019-05-11T09:27:39.329Z,236.25
2019-05-11T09:28:39.154Z,219.38
2019-05-11T09:29:39.138Z,78.75
2019-05-11T09:30:39.002Z,50.63
2019-05-11T09:31:39.058Z,39.38
2019-05-11T09:32:38.857Z,39.38
2019-05-11T09:33:38.874Z,45.00
2019-05-11T09:34:38.712Z,45.00
2019-05-11T09:35:49.630Z,73.13
2019-05-11T09:36:39.150Z,230.63
2019-05-11T09:37:38.586Z,112.50
2019-05-11T09:38:38.541Z,202.50
2019-05-11T09:39:38.566Z,258.75
2019-05-11T09:40:38.703Z,247.50
2019-05-11T09:41:38.538Z,253.13
2019-05-11T09:42:38.930Z,225.00
2019-05-11T09:43:38.108Z,185.63
2019-05-11T09:44:38.154Z,230.63
2019-05-11T09:45:48.259Z,236.25
2019-05-11T09:46:38.450Z,236.25
2019-05-11T09:47:38.574Z,247.50
2019-05-11T09:48:38.020Z,258.75
2019-05-11T09:49:46.435Z,270.00
2019-05-11T09:50:38.805Z,95.63
2019-05-11T09:51:38.103Z,78.75
2019-05-11T09:52:38.453Z,101.25
2019-05-11T09:53:38.883Z,320.63
2019-05-11T09:54:38.192Z,135.00
2019-05-11T09:55:38.877Z,303.75
2019-05-11T09:56:38.255Z,315.00
2019-05-11T09:57:38.178Z,84.38
2019-05-11T09:58:38.617Z,73.13
2019-05-11T09:59:38.529Z,281.25
2019-05-11T10:00:38.839Z,281.25
2019-05-11T10:01:37.834Z,118.13
2019-05-11T10:02:38.491Z,275.63
2019-05-11T10:03:38.716Z,264.38
2019-05-11T10:04:38.044Z,67.50
2019-05-11T10:05:38.259Z,270.00
2019-05-11T10:06:38.617Z,67.50
2019-05-11T10:07:38.063Z,84.38
2019-05-11T10:08:38.075Z,253.13
2019-05-11T10:09:38.345Z,73.13
2019-05-11T10:10:38.118Z,275.63
2019-05-11T10:11:36.051Z,270.00
2019-05-11T10:12:38.002Z,264.38
2019-05-11T10:13:38.261Z,264.38
2019-05-11T10:14:37.938Z,264.38
2019-05-11T10:15:35.778Z,258.75
2019-05-11T10:16:35.594Z,258.75
2019-05-11T10:17:38.013Z,264.38
2019-05-11T10:18:35.451Z,253.13
2019-05-11T10:19:35.491Z,185.63
2019-05-11T10:20:35.303Z,264.38
2019-05-11T10:21:35.270Z,112.50
2019-05-11T10:22:35.160Z,67.50
2019-05-11T10:23:35.179Z,112.50
2019-05-11T10:24:35.009Z,286.88
2019-05-11T10:25:35.019Z,286.88
2019-05-11T10:26:34.862Z,90.00
2019-05-11T10:27:34.939Z,90.00
2019-05-11T10:28:34.716Z,95.63
2019-05-11T10:29:34.741Z,84.38
2019-05-11T10:30:34.572Z,84.38
2019-05-11T10:31:34.514Z,73.13
2019-05-11T10:32:34.427Z,56.25
2019-05-11T10:33:34.464Z,50.63
2019-05-11T10:34:34.278Z,45.00
2019-05-11T10:35:34.269Z,50.63
2019-05-11T10:36:34.136Z,50.63
2019-05-11T10:37:34.185Z,61.88
2019-05-11T10:38:33.988Z,84.38
2019-05-11T10:39:33.993Z,275.63
2019-05-11T10:40:33.847Z,230.63
2019-05-11T10:41:33.903Z,264.38
2019-05-11T10:42:33.704Z,247.50
2019-05-11T10:43:33.713Z,213.75
2019-05-11T10:44:33.551Z,185.63
2019-05-11T10:45:33.626Z,61.88
2019-05-11T10:46:33.417Z,56.25
2019-05-11T10:47:33.394Z,61.88
2019-05-11T10:48:33.280Z,67.50
2019-05-11T10:49:33.240Z,61.88
2019-05-11T10:50:33.119Z,50.63
2019-05-11T10:51:33.113Z,39.38
2019-05-11T10:52:32.967Z,28.13
2019-05-11T10:53:32.960Z,22.50
2019-05-11T10:54:32.823Z,16.88
2019-05-11T10:55:32.873Z,16.88
2019-05-11T10:56:32.672Z,11.25
2019-05-11T10:57:32.683Z,11.25
2019-05-11T10:58:32.525Z,11.25
2019-05-11T10:59:32.594Z,11.25
2019-05-11T11:00:32.378Z,11.25
2019-05-11T11:01:32.363Z,11.25
2019-05-11T11:02:32.232Z,16.88
2019-05-11T11:03:32.171Z,16.88
2019-05-11T11:04:32.085Z,16.88
2019-05-11T11:05:32.122Z,16.88
2019-05-11T11:06:31.942Z,16.88
2019-05-11T11:07:31.936Z,16.88
2019-05-11T11:08:31.791Z,16.88
2019-05-11T11:09:31.856Z,16.88
2019-05-11T11:10:31.631Z,16.88
2019-05-11T11:11:31.649Z,22.50
2019-05-11T11:12:31.487Z,22.50
2019-05-11T11:13:31.563Z,22.50
2019-05-11T11:14:31.342Z,22.50
2019-05-11T11:15:31.369Z,22.50
2019-05-11T11:16:39.278Z,22.50
2019-05-11T11:17:31.190Z,22.50
2019-05-11T11:18:31.049Z,28.13
2019-05-11T11:19:31.090Z,33.75
2019-05-11T11:20:30.893Z,33.75
2019-05-11T11:21:30.918Z,33.75
2019-05-11T11:22:39.804Z,39.38
2019-05-11T11:23:30.854Z,45.00
2019-05-11T11:24:30.591Z,50.63
2019-05-11T11:25:30.620Z,56.25
2019-05-11T11:26:30.446Z,56.25
2019-05-11T11:27:30.533Z,61.88
2019-05-11T11:28:30.294Z,61.88
2019-05-11T11:29:30.342Z,67.50
2019-05-11T11:30:30.148Z,67.50
2019-05-11T11:31:30.167Z,73.13
2019-05-11T11:32:29.995Z,78.75
2019-05-11T11:33:30.018Z,84.38
2019-05-11T11:34:29.848Z,90.00
2019-05-11T11:35:29.888Z,101.25
2019-05-11T11:36:29.697Z,135.00
2019-05-11T11:37:29.792Z,118.13
2019-05-11T11:38:29.544Z,157.50
2019-05-11T11:39:29.602Z,101.25
2019-05-11T11:40:29.396Z,90.00
2019-05-11T11:41:30.005Z,78.75
2019-05-11T11:42:29.253Z,78.75
2019-05-11T11:43:29.312Z,129.38
2019-05-11T11:44:29.106Z,106.88
2019-05-11T11:45:29.133Z,202.50
2019-05-11T11:46:28.946Z,208.13
2019-05-11T11:47:29.042Z,208.13
2019-05-11T11:48:28.798Z,202.50
2019-05-11T11:49:28.842Z,208.13
2019-05-11T11:50:28.650Z,106.88
2019-05-11T11:51:28.780Z,151.88
2019-05-11T11:52:28.499Z,185.63
2019-05-11T11:53:28.569Z,118.13
2019-05-11T11:54:28.882Z,157.50
2019-05-11T11:55:29.102Z,225.00
2019-05-11T11:56:28.454Z,202.50
2019-05-11T11:57:28.467Z,208.13
2019-05-11T11:58:28.053Z,78.75
2019-05-11T11:59:28.771Z,78.75
2019-05-11T12:00:28.792Z,84.38
2019-05-11T12:01:28.245Z,84.38
2019-05-11T12:02:28.010Z,101.25
2019-05-11T12:03:27.846Z,112.50
2019-05-11T12:04:28.374Z,157.50
2019-05-11T12:05:28.278Z,185.63
2019-05-11T12:06:28.032Z,185.63
2019-05-11T12:07:28.565Z,196.88
2019-05-11T12:08:28.233Z,191.25
2019-05-11T12:09:28.631Z,174.38
2019-05-11T12:10:28.708Z,174.38
2019-05-11T12:11:27.933Z,157.50
2019-05-11T12:12:27.903Z,174.38
2019-05-11T12:13:29.516Z,196.88
2019-05-11T12:14:28.224Z,135.00
2019-05-11T12:15:28.293Z,168.75
2019-05-11T12:16:28.163Z,118.13
2019-05-11T12:17:28.540Z,174.38
2019-05-11T12:18:28.610Z,118.13
2019-05-11T12:19:27.901Z,146.25
2019-05-11T12:20:28.464Z,185.63
2019-05-11T12:21:27.747Z,129.38
2019-05-11T12:22:28.002Z,84.38
2019-05-11T12:23:28.339Z,84.38
2019-05-11T12:24:26.134Z,84.38
2019-05-11T12:25:27.795Z,84.38
2019-05-11T12:26:28.032Z,84.38
2019-05-11T12:27:26.035Z,123.75
2019-05-11T12:28:27.666Z,84.38
2019-05-11T12:29:28.104Z,78.75
2019-05-11T12:30:25.693Z,84.38
2019-05-11T12:31:25.758Z,168.75
2019-05-11T12:32:27.609Z,112.50
2019-05-11T12:33:27.812Z,84.38
2019-05-11T12:34:25.403Z,78.75
2019-05-11T12:35:25.476Z,78.75
2019-05-11T12:36:25.252Z,90.00
2019-05-11T12:37:25.283Z,84.38
2019-05-11T12:38:27.536Z,84.38
2019-05-11T12:39:25.194Z,84.38
2019-05-11T12:40:24.956Z,84.38
2019-05-11T12:41:25.006Z,84.38
2019-05-11T12:42:24.809Z,101.25
2019-05-11T12:43:24.915Z,101.25
2019-05-11T12:44:24.662Z,95.63
2019-05-11T12:45:24.725Z,90.00
2019-05-11T12:46:24.516Z,95.63
2019-05-11T12:47:25.269Z,208.13
2019-05-11T12:48:24.368Z,123.75
2019-05-11T12:49:24.375Z,95.63
2019-05-11T12:50:24.221Z,95.63
2019-05-11T12:51:24.254Z,95.63
2019-05-11T12:52:24.077Z,140.63
2019-05-11T12:53:24.090Z,90.00
2019-05-11T12:54:23.928Z,90.00
2019-05-11T12:55:23.975Z,95.63
2019-05-11T12:56:23.780Z,95.63
2019-05-11T12:57:23.896Z,151.88